sensor_id;sensor_type;location;lat;lon;timestamp;pressure;altitude;pressure_sealevel;temperature;humidity
57616;BME280;43816;52.054;-9.494;2022-08-21T00:00:08;100938.03;;;19.81;55.88
57616;BME280;43816;52.054;-9.494;2022-08-21T00:00:23;100933.78;;;19.78;55.91
57616;BME280;43816;52.054;-9.494;2022-08-21T00:00:33;100935.47;;;19.80;55.84
57616;BME280;43816;52.054;-9.494;2022-08-21T00:00:44;100935.63;;;19.78;55.82
57616;BME280;43816;52.054;-9.494;2022-08-21T00:00:54;100934.63;;;19.79;55.98
57616;BME280;43816;52.054;-9.494;2022-08-21T00:01:10;100943.81;;;19.78;55.86
57616;BME280;43816;52.054;-9.494;2022-08-21T00:01:24;100938.53;;;19.76;55.83
57616;BME280;43816;52.054;-9.494;2022-08-21T00:01:35;100934.78;;;19.77;55.72
57616;BME280;43816;52.054;-9.494;2022-08-21T00:01:45;100939.41;;;19.77;55.79
57616;BME280;43816;52.054;-9.494;2022-08-21T00:01:56;100941.25;;;19.76;55.95
57616;BME280;43816;52.054;-9.494;2022-08-21T00:02:20;100937.69;;;19.76;56.10
57616;BME280;43816;52.054;-9.494;2022-08-21T00:02:31;100939.59;;;19.75;55.85
57616;BME280;43816;52.054;-9.494;2022-08-21T00:02:56;100940.44;;;19.76;55.93
57616;BME280;43816;52.054;-9.494;2022-08-21T00:03:09;100944.00;;;19.76;55.79
57616;BME280;43816;52.054;-9.494;2022-08-21T00:03:19;100942.31;;;19.75;55.79
57616;BME280;43816;52.054;-9.494;2022-08-21T00:03:30;100940.44;;;19.76;55.81
57616;BME280;43816;52.054;-9.494;2022-08-21T00:03:40;100940.44;;;19.76;56.10
57616;BME280;43816;52.054;-9.494;2022-08-21T00:03:50;100939.59;;;19.75;55.81
57616;BME280;43816;52.054;-9.494;2022-08-21T00:04:08;100949.63;;;19.75;55.95
57616;BME280;43816;52.054;-9.494;2022-08-21T00:04:19;100934.13;;;19.75;56.00
57616;BME280;43816;52.054;-9.494;2022-08-21T00:04:30;100941.25;;;19.76;55.88
57616;BME280;43816;52.054;-9.494;2022-08-21T00:04:40;100936.84;;;19.75;55.88
57616;BME280;43816;52.054;-9.494;2022-08-21T00:04:51;100940.44;;;19.76;56.08
57616;BME280;43816;52.054;-9.494;2022-08-21T00:05:03;100940.44;;;19.76;55.91
57616;BME280;43816;52.054;-9.494;2022-08-21T00:05:14;100933.25;;;19.75;55.94
57616;BME280;43816;52.054;-9.494;2022-08-21T00:05:26;100939.59;;;19.75;56.04
57616;BME280;43816;52.054;-9.494;2022-08-21T00:05:40;100938.72;;;19.75;55.85
57616;BME280;43816;52.054;-9.494;2022-08-21T00:05:51;100939.72;;;19.74;55.77
57616;BME280;43816;52.054;-9.494;2022-08-21T00:06:02;100936.84;;;19.75;56.19
57616;BME280;43816;52.054;-9.494;2022-08-21T00:06:12;100938.72;;;19.75;56.00
57616;BME280;43816;52.054;-9.494;2022-08-21T00:06:23;100937.69;;;19.76;55.93
57616;BME280;43816;52.054;-9.494;2022-08-21T00:06:33;100936.84;;;19.75;56.05
57616;BME280;43816;52.054;-9.494;2022-08-21T00:06:43;100935.97;;;19.75;55.95
57616;BME280;43816;52.054;-9.494;2022-08-21T00:06:53;100940.44;;;19.76;55.96
57616;BME280;43816;52.054;-9.494;2022-08-21T00:07:04;100942.31;;;19.75;56.06
57616;BME280;43816;52.054;-9.494;2022-08-21T00:07:14;100940.56;;;19.74;55.73
57616;BME280;43816;52.054;-9.494;2022-08-21T00:07:25;100942.31;;;19.75;56.10
57616;BME280;43816;52.054;-9.494;2022-08-21T00:07:35;100938.72;;;19.75;55.97
57616;BME280;43816;52.054;-9.494;2022-08-21T00:07:46;100943.28;;;19.74;55.89
57616;BME280;43816;52.054;-9.494;2022-08-21T00:07:56;100943.28;;;19.74;55.87
57616;BME280;43816;52.054;-9.494;2022-08-21T00:08:08;100949.63;;;19.75;55.94
57616;BME280;43816;52.054;-9.494;2022-08-21T00:08:19;100946.91;;;19.75;55.92
57616;BME280;43816;52.054;-9.494;2022-08-21T00:08:30;100941.44;;;19.75;56.02
57616;BME280;43816;52.054;-9.494;2022-08-21T00:08:40;100949.63;;;19.75;55.83
57616;BME280;43816;52.054;-9.494;2022-08-21T00:08:51;100939.59;;;19.75;55.92
57616;BME280;43816;52.054;-9.494;2022-08-21T00:09:04;100942.44;;;19.74;55.96
57616;BME280;43816;52.054;-9.494;2022-08-21T00:09:15;100942.44;;;19.74;55.93
57616;BME280;43816;52.054;-9.494;2022-08-21T00:09:26;100942.44;;;19.74;55.78
57616;BME280;43816;52.054;-9.494;2022-08-21T00:09:36;100947.06;;;19.73;55.95
57616;BME280;43816;52.054;-9.494;2022-08-21T00:09:47;100944.34;;;19.73;56.07
57616;BME280;43816;52.054;-9.494;2022-08-21T00:09:57;100947.06;;;19.73;55.88
57616;BME280;43816;52.054;-9.494;2022-08-21T00:10:08;100947.06;;;19.73;55.83
57616;BME280;43816;52.054;-9.494;2022-08-21T00:10:20;100939.88;;;19.72;56.08
57616;BME280;43816;52.054;-9.494;2022-08-21T00:10:31;100946.19;;;19.73;55.99
57616;BME280;43816;52.054;-9.494;2022-08-21T00:10:42;100945.34;;;19.72;55.87
57616;BME280;43816;52.054;-9.494;2022-08-21T00:10:53;100945.34;;;19.72;55.91
57616;BME280;43816;52.054;-9.494;2022-08-21T00:11:04;100939.06;;;19.72;55.88
57616;BME280;43816;52.054;-9.494;2022-08-21T00:11:15;100946.19;;;19.73;55.82
57616;BME280;43816;52.054;-9.494;2022-08-21T00:11:25;100946.19;;;19.73;55.98
57616;BME280;43816;52.054;-9.494;2022-08-21T00:11:37;100945.34;;;19.72;55.97
57616;BME280;43816;52.054;-9.494;2022-08-21T00:11:48;100948.91;;;19.73;55.98
57616;BME280;43816;52.054;-9.494;2022-08-21T00:11:58;100948.09;;;19.72;55.87
57616;BME280;43816;52.054;-9.494;2022-08-21T00:12:09;100941.78;;;19.72;55.97
57616;BME280;43816;52.054;-9.494;2022-08-21T00:12:20;100943.47;;;19.73;55.88
57616;BME280;43816;52.054;-9.494;2022-08-21T00:12:30;100950.81;;;19.72;55.98
57616;BME280;43816;52.054;-9.494;2022-08-21T00:12:42;100949.97;;;19.72;55.88
57616;BME280;43816;52.054;-9.494;2022-08-21T00:12:52;100948.91;;;19.73;56.10
57616;BME280;43816;52.054;-9.494;2022-08-21T00:13:04;100949.97;;;19.72;55.96
57616;BME280;43816;52.054;-9.494;2022-08-21T00:13:16;100952.69;;;19.72;55.84
57616;BME280;43816;52.054;-9.494;2022-08-21T00:13:27;100944.50;;;19.72;56.14
57616;BME280;43816;52.054;-9.494;2022-08-21T00:13:38;100951.66;;;19.73;56.02
57616;BME280;43816;52.054;-9.494;2022-08-21T00:13:48;100949.97;;;19.72;55.93
57616;BME280;43816;52.054;-9.494;2022-08-21T00:13:59;100955.44;;;19.72;55.90
57616;BME280;43816;52.054;-9.494;2022-08-21T00:14:10;100955.44;;;19.72;55.84
57616;BME280;43816;52.054;-9.494;2022-08-21T00:14:20;100947.25;;;19.72;55.87
57616;BME280;43816;52.054;-9.494;2022-08-21T00:14:32;100950.97;;;19.71;56.07
57616;BME280;43816;52.054;-9.494;2022-08-21T00:14:43;100949.97;;;19.72;55.93
57616;BME280;43816;52.054;-9.494;2022-08-21T00:14:53;100951.81;;;19.71;55.85
57616;BME280;43816;52.054;-9.494;2022-08-21T00:15:06;100952.88;;;19.70;56.02
57616;BME280;43816;52.054;-9.494;2022-08-21T00:15:21;100952.88;;;19.70;56.05
57616;BME280;43816;52.054;-9.494;2022-08-21T00:15:35;100949.25;;;19.70;55.92
57616;BME280;43816;52.054;-9.494;2022-08-21T00:15:46;100952.00;;;19.70;55.92
57616;BME280;43816;52.054;-9.494;2022-08-21T00:15:57;100957.44;;;19.70;56.08
57616;BME280;43816;52.054;-9.494;2022-08-21T00:16:07;100954.72;;;19.70;55.94
57616;BME280;43816;52.054;-9.494;2022-08-21T00:16:17;100950.13;;;19.70;56.17
57616;BME280;43816;52.054;-9.494;2022-08-21T00:16:28;100949.25;;;19.70;55.94
57616;BME280;43816;52.054;-9.494;2022-08-21T00:16:38;100960.00;;;19.71;56.14
57616;BME280;43816;52.054;-9.494;2022-08-21T00:16:48;100947.41;;;19.70;55.98
57616;BME280;43816;52.054;-9.494;2022-08-21T00:17:00;100952.00;;;19.70;55.80
57616;BME280;43816;52.054;-9.494;2022-08-21T00:17:10;100953.72;;;19.71;56.01
57616;BME280;43816;52.054;-9.494;2022-08-21T00:17:21;100952.88;;;19.70;55.91
57616;BME280;43816;52.054;-9.494;2022-08-21T00:17:31;100947.41;;;19.70;56.05
57616;BME280;43816;52.054;-9.494;2022-08-21T00:17:41;100953.72;;;19.71;55.88
57616;BME280;43816;52.054;-9.494;2022-08-21T00:17:53;100949.09;;;19.71;55.97
57616;BME280;43816;52.054;-9.494;2022-08-21T00:18:04;100954.56;;;19.71;55.99
57616;BME280;43816;52.054;-9.494;2022-08-21T00:18:16;100946.53;;;19.70;55.85
57616;BME280;43816;52.054;-9.494;2022-08-21T00:18:26;100946.53;;;19.70;55.80
57616;BME280;43816;52.054;-9.494;2022-08-21T00:18:37;100950.97;;;19.71;55.92
57616;BME280;43816;52.054;-9.494;2022-08-21T00:18:48;100950.97;;;19.71;56.14
57616;BME280;43816;52.054;-9.494;2022-08-21T00:18:58;100951.81;;;19.71;56.01
57616;BME280;43816;52.054;-9.494;2022-08-21T00:19:08;100947.41;;;19.70;55.93
57616;BME280;43816;52.054;-9.494;2022-08-21T00:19:19;100946.53;;;19.70;55.97
57616;BME280;43816;52.054;-9.494;2022-08-21T00:19:30;100948.25;;;19.71;56.02
57616;BME280;43816;52.054;-9.494;2022-08-21T00:19:40;100950.97;;;19.71;55.70
57616;BME280;43816;52.054;-9.494;2022-08-21T00:19:50;100948.25;;;19.71;55.93
57616;BME280;43816;52.054;-9.494;2022-08-21T00:20:03;100960.00;;;19.71;55.80
57616;BME280;43816;52.054;-9.494;2022-08-21T00:20:15;100958.16;;;19.72;56.06
57616;BME280;43816;52.054;-9.494;2022-08-21T00:20:26;100954.72;;;19.70;56.09
57616;BME280;43816;52.054;-9.494;2022-08-21T00:20:37;100952.88;;;19.70;56.07
57616;BME280;43816;52.054;-9.494;2022-08-21T00:20:48;100947.59;;;19.69;55.95
57616;BME280;43816;52.054;-9.494;2022-08-21T00:20:58;100950.31;;;19.69;55.88
57616;BME280;43816;52.054;-9.494;2022-08-21T00:21:14;100954.72;;;19.70;55.99
57616;BME280;43816;52.054;-9.494;2022-08-21T00:21:24;100957.44;;;19.70;56.09
57616;BME280;43816;52.054;-9.494;2022-08-21T00:21:36;100954.72;;;19.70;56.19
57616;BME280;43816;52.054;-9.494;2022-08-21T00:21:46;100948.41;;;19.69;56.08
57616;BME280;43816;52.054;-9.494;2022-08-21T00:21:56;100953.88;;;19.69;55.92
57616;BME280;43816;52.054;-9.494;2022-08-21T00:22:07;100954.72;;;19.70;56.13
57616;BME280;43816;52.054;-9.494;2022-08-21T00:22:17;100954.72;;;19.70;56.03
57616;BME280;43816;52.054;-9.494;2022-08-21T00:22:27;100953.88;;;19.69;55.94
57616;BME280;43816;52.054;-9.494;2022-08-21T00:22:39;100949.25;;;19.70;56.01
57616;BME280;43816;52.054;-9.494;2022-08-21T00:22:50;100950.13;;;19.70;56.07
57616;BME280;43816;52.054;-9.494;2022-08-21T00:23:00;100952.00;;;19.70;56.06
57616;BME280;43816;52.054;-9.494;2022-08-21T00:23:11;100953.03;;;19.69;55.97
57616;BME280;43816;52.054;-9.494;2022-08-21T00:23:21;100948.41;;;19.69;55.98
57616;BME280;43816;52.054;-9.494;2022-08-21T00:23:34;100954.56;;;19.71;56.08
57616;BME280;43816;52.054;-9.494;2022-08-21T00:23:44;100948.25;;;19.71;56.02
57616;BME280;43816;52.054;-9.494;2022-08-21T00:23:55;100952.88;;;19.70;56.05
57616;BME280;43816;52.054;-9.494;2022-08-21T00:24:05;100956.44;;;19.71;55.96
57616;BME280;43816;52.054;-9.494;2022-08-21T00:24:15;100952.00;;;19.70;55.99
57616;BME280;43816;52.054;-9.494;2022-08-21T00:24:26;100950.31;;;19.69;55.95
57616;BME280;43816;52.054;-9.494;2022-08-21T00:24:37;100954.72;;;19.70;56.06
57616;BME280;43816;52.054;-9.494;2022-08-21T00:24:47;100947.59;;;19.69;55.92
57616;BME280;43816;52.054;-9.494;2022-08-21T00:24:57;100946.53;;;19.70;56.06
57616;BME280;43816;52.054;-9.494;2022-08-21T00:25:09;100944.84;;;19.69;55.85
57616;BME280;43816;52.054;-9.494;2022-08-21T00:25:19;100948.41;;;19.69;56.04
57616;BME280;43816;52.054;-9.494;2022-08-21T00:25:31;100946.53;;;19.70;55.93
57616;BME280;43816;52.054;-9.494;2022-08-21T00:25:43;100953.88;;;19.69;56.02
57616;BME280;43816;52.054;-9.494;2022-08-21T00:25:54;100956.78;;;19.68;55.92
57616;BME280;43816;52.054;-9.494;2022-08-21T00:26:04;100954.06;;;19.68;56.09
57616;BME280;43816;52.054;-9.494;2022-08-21T00:26:14;100945.88;;;19.68;56.02
57616;BME280;43816;52.054;-9.494;2022-08-21T00:26:25;100947.75;;;19.67;56.08
57616;BME280;43816;52.054;-9.494;2022-08-21T00:26:35;100949.59;;;19.67;56.11
57616;BME280;43816;52.054;-9.494;2022-08-21T00:26:46;100949.59;;;19.67;56.00
57616;BME280;43816;52.054;-9.494;2022-08-21T00:26:56;100947.75;;;19.67;56.01
57616;BME280;43816;52.054;-9.494;2022-08-21T00:27:07;100952.34;;;19.67;56.08
57616;BME280;43816;52.054;-9.494;2022-08-21T00:27:17;100948.59;;;19.68;56.03
57616;BME280;43816;52.054;-9.494;2022-08-21T00:27:28;100947.75;;;19.67;55.94
57616;BME280;43816;52.054;-9.494;2022-08-21T00:27:39;100951.50;;;19.66;56.02
57616;BME280;43816;52.054;-9.494;2022-08-21T00:27:49;100946.03;;;19.66;55.93
57616;BME280;43816;52.054;-9.494;2022-08-21T00:27:59;100950.47;;;19.67;56.20
57616;BME280;43816;52.054;-9.494;2022-08-21T00:28:11;100945.88;;;19.68;56.01
57616;BME280;43816;52.054;-9.494;2022-08-21T00:28:21;100946.88;;;19.67;56.08
57616;BME280;43816;52.054;-9.494;2022-08-21T00:28:31;100950.47;;;19.67;55.94
57616;BME280;43816;52.054;-9.494;2022-08-21T00:28:42;100944.16;;;19.67;56.03
57616;BME280;43816;52.054;-9.494;2022-08-21T00:28:52;100951.31;;;19.68;56.10
57616;BME280;43816;52.054;-9.494;2022-08-21T00:29:03;100949.59;;;19.67;56.25
57616;BME280;43816;52.054;-9.494;2022-08-21T00:29:14;100949.59;;;19.67;56.09
57616;BME280;43816;52.054;-9.494;2022-08-21T00:29:24;100950.47;;;19.67;56.13
57616;BME280;43816;52.054;-9.494;2022-08-21T00:29:34;100946.88;;;19.67;56.04
57616;BME280;43816;52.054;-9.494;2022-08-21T00:29:45;100946.88;;;19.67;56.14
57616;BME280;43816;52.054;-9.494;2022-08-21T00:29:55;100949.59;;;19.67;56.12
57616;BME280;43816;52.054;-9.494;2022-08-21T00:30:06;100946.03;;;19.66;55.70
57616;BME280;43816;52.054;-9.494;2022-08-21T00:30:18;100939.56;;;19.67;55.87
57616;BME280;43816;52.054;-9.494;2022-08-21T00:30:30;100942.28;;;19.67;56.12
57616;BME280;43816;52.054;-9.494;2022-08-21T00:30:42;100943.31;;;19.66;56.22
57616;BME280;43816;52.054;-9.494;2022-08-21T00:30:52;100946.88;;;19.67;55.83
57616;BME280;43816;52.054;-9.494;2022-08-21T00:31:02;100949.59;;;19.67;55.91
57616;BME280;43816;52.054;-9.494;2022-08-21T00:31:13;100948.59;;;19.68;56.05
57616;BME280;43816;52.054;-9.494;2022-08-21T00:31:23;100946.88;;;19.67;55.80
57616;BME280;43816;52.054;-9.494;2022-08-21T00:31:33;100941.41;;;19.67;55.91
57616;BME280;43816;52.054;-9.494;2022-08-21T00:31:44;100944.16;;;19.67;56.04
57616;BME280;43816;52.054;-9.494;2022-08-21T00:31:54;100946.03;;;19.66;56.02
57616;BME280;43816;52.054;-9.494;2022-08-21T00:32:05;100946.03;;;19.66;55.92
57616;BME280;43816;52.054;-9.494;2022-08-21T00:32:21;100939.72;;;19.66;56.01
57616;BME280;43816;52.054;-9.494;2022-08-21T00:32:31;100943.31;;;19.66;56.01
57616;BME280;43816;52.054;-9.494;2022-08-21T00:32:43;100943.31;;;19.66;55.98
57616;BME280;43816;52.054;-9.494;2022-08-21T00:32:55;100946.03;;;19.66;56.11
57616;BME280;43816;52.054;-9.494;2022-08-21T00:33:06;100940.56;;;19.66;55.93
57616;BME280;43816;52.054;-9.494;2022-08-21T00:33:16;100940.56;;;19.66;55.98
57616;BME280;43816;52.054;-9.494;2022-08-21T00:33:27;100942.63;;;19.64;55.94
57616;BME280;43816;52.054;-9.494;2022-08-21T00:33:37;100942.47;;;19.66;56.04
57616;BME280;43816;52.054;-9.494;2022-08-21T00:33:48;100946.03;;;19.66;56.14
57616;BME280;43816;52.054;-9.494;2022-08-21T00:33:58;100939.72;;;19.66;55.79
57616;BME280;43816;52.054;-9.494;2022-08-21T00:34:10;100947.91;;;19.66;56.02
57616;BME280;43816;52.054;-9.494;2022-08-21T00:34:21;100940.75;;;19.65;56.17
57616;BME280;43816;52.054;-9.494;2022-08-21T00:34:31;100947.91;;;19.66;55.84
57616;BME280;43816;52.054;-9.494;2022-08-21T00:34:42;100939.72;;;19.66;55.91
57616;BME280;43816;52.054;-9.494;2022-08-21T00:34:52;100938.00;;;19.65;56.22
57616;BME280;43816;52.054;-9.494;2022-08-21T00:35:05;100946.88;;;19.67;56.03
57616;BME280;43816;52.054;-9.494;2022-08-21T00:35:17;100946.88;;;19.67;56.17
57616;BME280;43816;52.054;-9.494;2022-08-21T00:35:31;100939.72;;;19.66;56.09
57616;BME280;43816;52.054;-9.494;2022-08-21T00:35:43;100945.19;;;19.66;55.60
57616;BME280;43816;52.054;-9.494;2022-08-21T00:35:53;100944.16;;;19.67;56.13
57616;BME280;43816;52.054;-9.494;2022-08-21T00:36:04;100945.19;;;19.66;56.10
57616;BME280;43816;52.054;-9.494;2022-08-21T00:36:15;100938.88;;;19.65;56.02
57616;BME280;43816;52.054;-9.494;2022-08-21T00:36:25;100942.47;;;19.66;55.88
57616;BME280;43816;52.054;-9.494;2022-08-21T00:36:36;100937.00;;;19.66;56.13
57616;BME280;43816;52.054;-9.494;2022-08-21T00:36:46;100943.47;;;19.65;56.03
57616;BME280;43816;52.054;-9.494;2022-08-21T00:36:56;100947.91;;;19.66;56.12
57616;BME280;43816;52.054;-9.494;2022-08-21T00:37:07;100946.03;;;19.66;56.01
57616;BME280;43816;52.054;-9.494;2022-08-21T00:37:17;100940.75;;;19.65;56.00
57616;BME280;43816;52.054;-9.494;2022-08-21T00:37:27;100941.63;;;19.65;55.96
57616;BME280;43816;52.054;-9.494;2022-08-21T00:37:39;100938.00;;;19.65;56.16
57616;BME280;43816;52.054;-9.494;2022-08-21T00:37:49;100943.47;;;19.65;55.89
57616;BME280;43816;52.054;-9.494;2022-08-21T00:38:00;100945.38;;;19.64;56.11
57616;BME280;43816;52.054;-9.494;2022-08-21T00:38:11;100943.47;;;19.65;55.94
57616;BME280;43816;52.054;-9.494;2022-08-21T00:38:22;100946.22;;;19.65;55.71
57616;BME280;43816;52.054;-9.494;2022-08-21T00:38:32;100939.91;;;19.64;56.21
57616;BME280;43816;52.054;-9.494;2022-08-21T00:38:42;100943.47;;;19.65;55.97
57616;BME280;43816;52.054;-9.494;2022-08-21T00:38:53;100939.91;;;19.64;56.06
57616;BME280;43816;52.054;-9.494;2022-08-21T00:39:04;100946.22;;;19.65;56.11
57616;BME280;43816;52.054;-9.494;2022-08-21T00:39:15;100938.19;;;19.63;56.06
57616;BME280;43816;52.054;-9.494;2022-08-21T00:39:25;100941.78;;;19.64;55.91
57616;BME280;43816;52.054;-9.494;2022-08-21T00:39:36;100944.53;;;19.64;55.97
57616;BME280;43816;52.054;-9.494;2022-08-21T00:39:46;100944.53;;;19.64;55.98
57616;BME280;43816;52.054;-9.494;2022-08-21T00:39:57;100940.91;;;19.63;55.95
57616;BME280;43816;52.054;-9.494;2022-08-21T00:40:11;100946.53;;;19.62;55.92
57616;BME280;43816;52.054;-9.494;2022-08-21T00:40:29;100939.22;;;19.62;56.16
57616;BME280;43816;52.054;-9.494;2022-08-21T00:40:42;100949.97;;;19.64;55.94
57616;BME280;43816;52.054;-9.494;2022-08-21T00:40:56;100945.53;;;19.63;56.16
57616;BME280;43816;52.054;-9.494;2022-08-21T00:41:09;100949.97;;;19.64;55.98
57616;BME280;43816;52.054;-9.494;2022-08-21T00:41:20;100950.81;;;19.64;56.15
57616;BME280;43816;52.054;-9.494;2022-08-21T00:41:31;100941.78;;;19.64;55.90
57616;BME280;43816;52.054;-9.494;2022-08-21T00:41:42;100945.38;;;19.64;56.03
57616;BME280;43816;52.054;-9.494;2022-08-21T00:41:52;100949.97;;;19.64;55.96
57616;BME280;43816;52.054;-9.494;2022-08-21T00:42:03;100947.25;;;19.64;56.12
57616;BME280;43816;52.054;-9.494;2022-08-21T00:42:14;100948.09;;;19.64;55.83
57616;BME280;43816;52.054;-9.494;2022-08-21T00:42:24;100950.81;;;19.64;56.13
57616;BME280;43816;52.054;-9.494;2022-08-21T00:42:35;100953.72;;;19.63;56.13
57616;BME280;43816;52.054;-9.494;2022-08-21T00:42:45;100954.56;;;19.63;55.94
57616;BME280;43816;52.054;-9.494;2022-08-21T00:42:56;100947.25;;;19.64;56.08
57616;BME280;43816;52.054;-9.494;2022-08-21T00:43:10;100953.56;;;19.64;56.07
57616;BME280;43816;52.054;-9.494;2022-08-21T00:43:24;100954.41;;;19.65;56.17
57616;BME280;43816;52.054;-9.494;2022-08-21T00:43:36;100953.56;;;19.64;55.94
57616;BME280;43816;52.054;-9.494;2022-08-21T00:43:46;100948.94;;;19.65;55.89
57616;BME280;43816;52.054;-9.494;2022-08-21T00:43:57;100952.72;;;19.64;56.04
57616;BME280;43816;52.054;-9.494;2022-08-21T00:44:10;100950.81;;;19.64;56.08
57616;BME280;43816;52.054;-9.494;2022-08-21T00:44:21;100949.97;;;19.64;55.98
57616;BME280;43816;52.054;-9.494;2022-08-21T00:44:31;100945.53;;;19.63;55.90
57616;BME280;43816;52.054;-9.494;2022-08-21T00:44:46;100951.00;;;19.63;56.10
57616;BME280;43816;52.054;-9.494;2022-08-21T00:44:57;100942.81;;;19.63;56.07
57616;BME280;43816;52.054;-9.494;2022-08-21T00:45:08;100945.53;;;19.63;56.01
57616;BME280;43816;52.054;-9.494;2022-08-21T00:45:20;100940.91;;;19.63;56.09
57616;BME280;43816;52.054;-9.494;2022-08-21T00:45:31;100941.97;;;19.62;56.29
57616;BME280;43816;52.054;-9.494;2022-08-21T00:45:41;100945.53;;;19.63;56.14
57616;BME280;43816;52.054;-9.494;2022-08-21T00:45:52;100947.25;;;19.64;56.05
57616;BME280;43816;52.054;-9.494;2022-08-21T00:46:03;100948.94;;;19.65;56.10
57616;BME280;43816;52.054;-9.494;2022-08-21T00:46:13;100949.97;;;19.64;55.88
57616;BME280;43816;52.054;-9.494;2022-08-21T00:46:24;100946.38;;;19.63;56.04
57616;BME280;43816;52.054;-9.494;2022-08-21T00:46:35;100951.00;;;19.63;55.96
57616;BME280;43816;52.054;-9.494;2022-08-21T00:46:46;100951.00;;;19.63;55.88
57616;BME280;43816;52.054;-9.494;2022-08-21T00:46:56;100957.28;;;19.63;56.08
57616;BME280;43816;52.054;-9.494;2022-08-21T00:47:06;100945.53;;;19.63;55.95
57616;BME280;43816;52.054;-9.494;2022-08-21T00:47:18;100955.44;;;19.64;56.08
57616;BME280;43816;52.054;-9.494;2022-08-21T00:47:28;100955.44;;;19.64;55.87
57616;BME280;43816;52.054;-9.494;2022-08-21T00:47:39;100952.72;;;19.64;55.97
57616;BME280;43816;52.054;-9.494;2022-08-21T00:47:50;100952.72;;;19.64;56.14
57616;BME280;43816;52.054;-9.494;2022-08-21T00:48:02;100949.97;;;19.64;56.21
57616;BME280;43816;52.054;-9.494;2022-08-21T00:48:12;100951.00;;;19.63;56.26
57616;BME280;43816;52.054;-9.494;2022-08-21T00:48:23;100951.00;;;19.63;56.08
57616;BME280;43816;52.054;-9.494;2022-08-21T00:48:34;100951.00;;;19.63;55.98
57616;BME280;43816;52.054;-9.494;2022-08-21T00:48:44;100954.72;;;19.62;56.13
57616;BME280;43816;52.054;-9.494;2022-08-21T00:48:55;100953.72;;;19.63;55.67
57616;BME280;43816;52.054;-9.494;2022-08-21T00:49:06;100954.72;;;19.62;56.17
57616;BME280;43816;52.054;-9.494;2022-08-21T00:49:16;100954.72;;;19.62;56.13
57616;BME280;43816;52.054;-9.494;2022-08-21T00:49:27;100952.88;;;19.62;55.90
57616;BME280;43816;52.054;-9.494;2022-08-21T00:49:38;100955.78;;;19.60;56.16
57616;BME280;43816;52.054;-9.494;2022-08-21T00:49:49;100957.63;;;19.60;55.91
57616;BME280;43816;52.054;-9.494;2022-08-21T00:49:59;100953.06;;;19.60;56.24
57616;BME280;43816;52.054;-9.494;2022-08-21T00:50:10;100960.38;;;19.60;56.21
57616;BME280;43816;52.054;-9.494;2022-08-21T00:50:22;100958.50;;;19.60;56.01
57616;BME280;43816;52.054;-9.494;2022-08-21T00:50:35;100954.06;;;19.59;56.15
57616;BME280;43816;52.054;-9.494;2022-08-21T00:50:58;100960.56;;;19.58;55.99
57616;BME280;43816;52.054;-9.494;2022-08-21T00:51:14;100958.69;;;19.59;56.20
57616;BME280;43816;52.054;-9.494;2022-08-21T00:51:37;100954.06;;;19.59;56.07
57616;BME280;43816;52.054;-9.494;2022-08-21T00:51:51;100960.56;;;19.58;56.37
57616;BME280;43816;52.054;-9.494;2022-08-21T00:52:06;100955.09;;;19.58;56.34
57616;BME280;43816;52.054;-9.494;2022-08-21T00:52:19;100956.78;;;19.59;56.17
57616;BME280;43816;52.054;-9.494;2022-08-21T00:52:32;100957.84;;;19.58;56.02
57616;BME280;43816;52.054;-9.494;2022-08-21T00:52:44;100955.09;;;19.58;56.09
57616;BME280;43816;52.054;-9.494;2022-08-21T00:52:55;100957.84;;;19.58;56.20
57616;BME280;43816;52.054;-9.494;2022-08-21T00:53:06;100951.50;;;19.58;56.18
57616;BME280;43816;52.054;-9.494;2022-08-21T00:53:17;100955.09;;;19.58;56.34
57616;BME280;43816;52.054;-9.494;2022-08-21T00:53:28;100961.41;;;19.59;56.16
57616;BME280;43816;52.054;-9.494;2022-08-21T00:53:42;100950.50;;;19.59;56.68
57616;BME280;43816;52.054;-9.494;2022-08-21T00:53:56;100955.94;;;19.59;56.03
57616;BME280;43816;52.054;-9.494;2022-08-21T00:54:07;100950.50;;;19.59;56.10
57616;BME280;43816;52.054;-9.494;2022-08-21T00:54:22;100946.91;;;19.58;56.30
57616;BME280;43816;52.054;-9.494;2022-08-21T00:54:33;100951.34;;;19.59;56.13
57616;BME280;43816;52.054;-9.494;2022-08-21T00:54:45;100951.50;;;19.58;56.10
57616;BME280;43816;52.054;-9.494;2022-08-21T00:54:57;100947.94;;;19.57;56.03
57616;BME280;43816;52.054;-9.494;2022-08-21T00:55:10;100949.66;;;19.58;56.12
57616;BME280;43816;52.054;-9.494;2022-08-21T00:55:21;100949.66;;;19.58;56.09
57616;BME280;43816;52.054;-9.494;2022-08-21T00:55:34;100947.94;;;19.57;56.11
57616;BME280;43816;52.054;-9.494;2022-08-21T00:55:46;100948.78;;;19.58;56.09
57616;BME280;43816;52.054;-9.494;2022-08-21T00:55:58;100948.78;;;19.58;56.11
57616;BME280;43816;52.054;-9.494;2022-08-21T00:56:10;100952.38;;;19.58;56.17
57616;BME280;43816;52.054;-9.494;2022-08-21T00:56:22;100944.19;;;19.58;56.33
57616;BME280;43816;52.054;-9.494;2022-08-21T00:56:34;100949.66;;;19.58;56.10
57616;BME280;43816;52.054;-9.494;2022-08-21T00:56:53;100940.75;;;19.56;56.06
57616;BME280;43816;52.054;-9.494;2022-08-21T00:57:09;100947.94;;;19.57;56.13
57616;BME280;43816;52.054;-9.494;2022-08-21T00:57:29;100944.19;;;19.58;56.31
57616;BME280;43816;52.054;-9.494;2022-08-21T00:57:44;100946.91;;;19.58;56.20
57616;BME280;43816;52.054;-9.494;2022-08-21T00:57:57;100953.38;;;19.57;55.94
57616;BME280;43816;52.054;-9.494;2022-08-21T00:58:11;100948.78;;;19.58;56.13
57616;BME280;43816;52.054;-9.494;2022-08-21T00:58:22;100949.66;;;19.58;56.27
57616;BME280;43816;52.054;-9.494;2022-08-21T00:58:33;100945.88;;;19.59;56.17
57616;BME280;43816;52.054;-9.494;2022-08-21T00:58:45;100949.66;;;19.58;56.05
57616;BME280;43816;52.054;-9.494;2022-08-21T00:58:56;100952.38;;;19.58;55.89
57616;BME280;43816;52.054;-9.494;2022-08-21T00:59:07;100953.38;;;19.57;56.05